Portada
METAR-TAF:

METAR-TAF

Aeropuertos :

Aeropuerto de Dublín

Dublín, Irlanda

latitud: 53-26N, longitud: 006-15W, altitud: 68 m

Observación

El informe se hizo hace 19 minutos, a las 01:00 UTC
Viento 4 kt del sur
Temperatura 2°C
Humedad 87%
Presión 1036 hPa
Visibilidad 10 km o más
Escasas nubes a una altura de 1600 ft
Nubes dispersas a una altura de 24000 ft

METAR: EIDW 250100Z 19004KT 9999 FEW016 SCT240 02/M00 Q1036 NOSIG

Hora: 02:19 (01:19 UTC)

Pronóstico

El informe se hizo hace 2 horas y 19 minutos, a las 23:00 UTC
Pronóstico válido del 25 a las 00 UTC al 25 a las 24 UTC
Viento 5 kt del sur-suroeste
Visibilidad 10 km o más
Escasas nubes a una altura de 2000 ft
Evolucionando progresivamente
del 25 a las 08 UTC al 25 a las 10 UTC
Viento 12 kt del sur-suroeste
Temporalmente
del 25 a las 15 UTC al 25 a las 24 UTC
Viento 16 kt del suroeste con ráfagas de 26 kt

TAF: EIDW 242300Z 2500/2524 20005KT 9999 FEW020 BECMG 2508/2510 21012KT TEMPO 2515/2524 23016G26KT

Observaciones y pronósticos meteorológicos de más de 4000 aeropuertos (mensajes METAR y TAF).

Los puntos amarillos y rojos representan las estaciones disponibles.

Ponga el ratón en el punto deseado para ver el nombre de la estación.

Haga clic para ver las observaciones y los pronósticos meteorológicos.

Para cambiar el mapa : haga clic en los botones verdes con una cruz de color negro para hacer un zoom, en el botón verde con un guión para alejar o en las flechas verdes para mapas adyacentes.


METAR-TAF: